sensor_id;sensor_type;location;lat;lon;timestamp;temperature;humidity
21676;DHT22;10999;51.332;9.458;2023-03-21T00:00:27;8.00;79.50
21676;DHT22;10999;51.332;9.458;2023-03-21T00:02:54;8.00;79.40
21676;DHT22;10999;51.332;9.458;2023-03-21T00:05:21;8.10;79.40
21676;DHT22;10999;51.332;9.458;2023-03-21T00:07:48;8.10;79.10
21676;DHT22;10999;51.332;9.458;2023-03-21T00:10:15;8.10;78.90
21676;DHT22;10999;51.332;9.458;2023-03-21T00:12:58;8.10;78.80
21676;DHT22;10999;51.332;9.458;2023-03-21T00:15:25;8.10;78.80
21676;DHT22;10999;51.332;9.458;2023-03-21T00:18:09;8.10;78.90
21676;DHT22;10999;51.332;9.458;2023-03-21T00:20:37;8.10;78.20
21676;DHT22;10999;51.332;9.458;2023-03-21T00:23:04;8.10;78.40
21676;DHT22;10999;51.332;9.458;2023-03-21T00:25:31;8.10;78.20
21676;DHT22;10999;51.332;9.458;2023-03-21T00:27:58;8.10;78.70
21676;DHT22;10999;51.332;9.458;2023-03-21T00:30:33;8.10;78.80
21676;DHT22;10999;51.332;9.458;2023-03-21T00:33:00;8.10;78.30
21676;DHT22;10999;51.332;9.458;2023-03-21T00:35:38;8.10;78.70
21676;DHT22;10999;51.332;9.458;2023-03-21T00:38:24;8.10;79.10
21676;DHT22;10999;51.332;9.458;2023-03-21T00:40:51;8.10;78.60
21676;DHT22;10999;51.332;9.458;2023-03-21T00:43:18;8.10;78.90
21676;DHT22;10999;51.332;9.458;2023-03-21T00:45:50;8.10;78.90
21676;DHT22;10999;51.332;9.458;2023-03-21T00:48:17;8.00;78.60
21676;DHT22;10999;51.332;9.458;2023-03-21T00:50:45;8.10;78.90
21676;DHT22;10999;51.332;9.458;2023-03-21T00:53:13;8.10;79.00
21676;DHT22;10999;51.332;9.458;2023-03-21T00:55:40;8.10;78.90
21676;DHT22;10999;51.332;9.458;2023-03-21T00:58:07;8.10;77.80
21676;DHT22;10999;51.332;9.458;2023-03-21T01:00:35;8.10;77.70
21676;DHT22;10999;51.332;9.458;2023-03-21T01:03:06;8.10;78.10
21676;DHT22;10999;51.332;9.458;2023-03-21T01:05:50;8.00;78.10
21676;DHT22;10999;51.332;9.458;2023-03-21T01:08:42;8.00;78.20
21676;DHT22;10999;51.332;9.458;2023-03-21T01:11:21;8.10;78.20
21676;DHT22;10999;51.332;9.458;2023-03-21T01:13:48;8.10;77.80
21676;DHT22;10999;51.332;9.458;2023-03-21T01:16:35;8.10;77.70
21676;DHT22;10999;51.332;9.458;2023-03-21T01:19:04;8.00;77.90
21676;DHT22;10999;51.332;9.458;2023-03-21T01:21:40;8.00;78.00
21676;DHT22;10999;51.332;9.458;2023-03-21T01:24:07;8.00;77.70
21676;DHT22;10999;51.332;9.458;2023-03-21T01:26:34;8.00;77.60
21676;DHT22;10999;51.332;9.458;2023-03-21T01:29:04;8.00;77.60
21676;DHT22;10999;51.332;9.458;2023-03-21T01:31:31;8.00;77.70
21676;DHT22;10999;51.332;9.458;2023-03-21T01:33:57;8.00;77.30
21676;DHT22;10999;51.332;9.458;2023-03-21T01:36:25;8.00;77.70
21676;DHT22;10999;51.332;9.458;2023-03-21T01:38:52;8.00;77.40
21676;DHT22;10999;51.332;9.458;2023-03-21T01:41:20;8.00;77.60
21676;DHT22;10999;51.332;9.458;2023-03-21T01:44:02;8.00;77.20
21676;DHT22;10999;51.332;9.458;2023-03-21T01:49:24;8.00;77.10
21676;DHT22;10999;51.332;9.458;2023-03-21T01:52:00;8.00;77.20
21676;DHT22;10999;51.332;9.458;2023-03-21T01:54:39;8.00;77.30
21676;DHT22;10999;51.332;9.458;2023-03-21T01:57:12;8.00;77.50
21676;DHT22;10999;51.332;9.458;2023-03-21T01:59:44;8.00;77.40
21676;DHT22;10999;51.332;9.458;2023-03-21T02:02:15;8.00;77.50
21676;DHT22;10999;51.332;9.458;2023-03-21T02:04:46;8.00;78.70
21676;DHT22;10999;51.332;9.458;2023-03-21T02:07:18;8.00;78.40
21676;DHT22;10999;51.332;9.458;2023-03-21T02:09:52;7.90;78.30
21676;DHT22;10999;51.332;9.458;2023-03-21T02:12:19;8.00;78.20
21676;DHT22;10999;51.332;9.458;2023-03-21T02:14:48;7.90;78.10
21676;DHT22;10999;51.332;9.458;2023-03-21T02:22:44;8.00;77.60
21676;DHT22;10999;51.332;9.458;2023-03-21T02:31:39;7.90;77.50
21676;DHT22;10999;51.332;9.458;2023-03-21T02:40:00;8.00;77.30
21676;DHT22;10999;51.332;9.458;2023-03-21T02:45:13;8.00;77.90
21676;DHT22;10999;51.332;9.458;2023-03-21T02:47:47;7.90;77.70
21676;DHT22;10999;51.332;9.458;2023-03-21T02:50:20;8.00;77.80
21676;DHT22;10999;51.332;9.458;2023-03-21T02:52:49;7.90;77.70
21676;DHT22;10999;51.332;9.458;2023-03-21T02:55:25;7.90;78.00
21676;DHT22;10999;51.332;9.458;2023-03-21T02:57:54;8.00;78.00
21676;DHT22;10999;51.332;9.458;2023-03-21T03:00:25;8.00;77.90
21676;DHT22;10999;51.332;9.458;2023-03-21T03:02:53;7.90;77.60
21676;DHT22;10999;51.332;9.458;2023-03-21T03:05:40;7.90;77.60
21676;DHT22;10999;51.332;9.458;2023-03-21T03:08:26;7.90;77.70
21676;DHT22;10999;51.332;9.458;2023-03-21T03:11:41;7.90;77.50
21676;DHT22;10999;51.332;9.458;2023-03-21T03:17:12;7.90;77.30
21676;DHT22;10999;51.332;9.458;2023-03-21T03:25:57;7.90;77.60
21676;DHT22;10999;51.332;9.458;2023-03-21T03:28:30;8.00;77.60
21676;DHT22;10999;51.332;9.458;2023-03-21T03:30:58;7.90;77.70
21676;DHT22;10999;51.332;9.458;2023-03-21T03:33:38;7.90;77.50
21676;DHT22;10999;51.332;9.458;2023-03-21T03:36:11;7.90;77.70
21676;DHT22;10999;51.332;9.458;2023-03-21T03:38:56;7.90;77.90
21676;DHT22;10999;51.332;9.458;2023-03-21T03:41:27;7.90;78.00
21676;DHT22;10999;51.332;9.458;2023-03-21T03:44:02;7.90;78.00
21676;DHT22;10999;51.332;9.458;2023-03-21T03:46:39;7.90;78.30
21676;DHT22;10999;51.332;9.458;2023-03-21T03:49:10;7.90;78.10
21676;DHT22;10999;51.332;9.458;2023-03-21T03:51:54;7.90;77.90
21676;DHT22;10999;51.332;9.458;2023-03-21T03:54:29;7.90;78.00
21676;DHT22;10999;51.332;9.458;2023-03-21T03:56:58;7.90;77.90
21676;DHT22;10999;51.332;9.458;2023-03-21T03:59:24;7.90;78.40
21676;DHT22;10999;51.332;9.458;2023-03-21T04:01:51;7.90;78.30
21676;DHT22;10999;51.332;9.458;2023-03-21T04:04:18;7.90;78.40
21676;DHT22;10999;51.332;9.458;2023-03-21T04:06:48;7.90;78.30
21676;DHT22;10999;51.332;9.458;2023-03-21T04:09:18;7.90;78.70
21676;DHT22;10999;51.332;9.458;2023-03-21T04:11:57;7.90;78.40
21676;DHT22;10999;51.332;9.458;2023-03-21T04:14:24;7.90;78.40
21676;DHT22;10999;51.332;9.458;2023-03-21T04:17:07;7.80;78.50
21676;DHT22;10999;51.332;9.458;2023-03-21T04:19:34;7.90;78.30
21676;DHT22;10999;51.332;9.458;2023-03-21T04:22:01;7.90;78.50
21676;DHT22;10999;51.332;9.458;2023-03-21T04:24:28;7.90;78.50
21676;DHT22;10999;51.332;9.458;2023-03-21T04:26:59;7.90;79.00
21676;DHT22;10999;51.332;9.458;2023-03-21T04:29:26;7.90;79.50
21676;DHT22;10999;51.332;9.458;2023-03-21T04:31:55;7.80;80.70
21676;DHT22;10999;51.332;9.458;2023-03-21T04:34:22;7.80;81.50
21676;DHT22;10999;51.332;9.458;2023-03-21T04:36:49;7.80;81.80
21676;DHT22;10999;51.332;9.458;2023-03-21T04:39:20;7.80;81.70
21676;DHT22;10999;51.332;9.458;2023-03-21T04:41:47;7.70;81.80
21676;DHT22;10999;51.332;9.458;2023-03-21T04:44:16;7.70;81.80
21676;DHT22;10999;51.332;9.458;2023-03-21T04:46:43;7.70;81.80
21676;DHT22;10999;51.332;9.458;2023-03-21T04:49:10;7.70;81.60
21676;DHT22;10999;51.332;9.458;2023-03-21T04:51:37;7.70;81.70
21676;DHT22;10999;51.332;9.458;2023-03-21T04:54:04;7.70;81.50
21676;DHT22;10999;51.332;9.458;2023-03-21T04:56:31;7.80;81.80
21676;DHT22;10999;51.332;9.458;2023-03-21T04:59:01;7.70;81.60
21676;DHT22;10999;51.332;9.458;2023-03-21T05:01:28;7.80;81.50
21676;DHT22;10999;51.332;9.458;2023-03-21T05:03:59;7.80;82.00
21676;DHT22;10999;51.332;9.458;2023-03-21T05:06:26;7.80;82.10
21676;DHT22;10999;51.332;9.458;2023-03-21T05:08:55;7.70;81.90
21676;DHT22;10999;51.332;9.458;2023-03-21T05:11:27;7.80;81.70
21676;DHT22;10999;51.332;9.458;2023-03-21T05:13:57;7.70;81.70
21676;DHT22;10999;51.332;9.458;2023-03-21T05:16:24;7.80;81.40
21676;DHT22;10999;51.332;9.458;2023-03-21T05:18:52;7.80;81.10
21676;DHT22;10999;51.332;9.458;2023-03-21T05:21:22;7.80;81.30
21676;DHT22;10999;51.332;9.458;2023-03-21T05:23:49;7.80;82.40
21676;DHT22;10999;51.332;9.458;2023-03-21T05:26:24;7.80;81.70
21676;DHT22;10999;51.332;9.458;2023-03-21T05:28:51;7.70;82.00
21676;DHT22;10999;51.332;9.458;2023-03-21T05:31:18;7.80;81.80
21676;DHT22;10999;51.332;9.458;2023-03-21T05:33:46;7.70;82.00
21676;DHT22;10999;51.332;9.458;2023-03-21T05:36:14;7.80;81.70
21676;DHT22;10999;51.332;9.458;2023-03-21T05:38:41;7.80;81.90
21676;DHT22;10999;51.332;9.458;2023-03-21T05:41:12;7.80;82.00
21676;DHT22;10999;51.332;9.458;2023-03-21T05:43:39;7.80;82.30
21676;DHT22;10999;51.332;9.458;2023-03-21T05:46:06;7.80;81.80
21676;DHT22;10999;51.332;9.458;2023-03-21T05:48:33;7.80;81.70
21676;DHT22;10999;51.332;9.458;2023-03-21T05:51:01;7.80;81.80
21676;DHT22;10999;51.332;9.458;2023-03-21T05:53:28;7.80;81.60
21676;DHT22;10999;51.332;9.458;2023-03-21T05:55:54;7.80;81.00
21676;DHT22;10999;51.332;9.458;2023-03-21T05:58:21;7.90;80.90
21676;DHT22;10999;51.332;9.458;2023-03-21T06:00:48;7.90;80.90
21676;DHT22;10999;51.332;9.458;2023-03-21T06:03:15;7.90;80.60
21676;DHT22;10999;51.332;9.458;2023-03-21T06:05:42;8.00;80.50
21676;DHT22;10999;51.332;9.458;2023-03-21T06:08:09;8.00;80.30
21676;DHT22;10999;51.332;9.458;2023-03-21T06:10:35;8.00;80.00
21676;DHT22;10999;51.332;9.458;2023-03-21T06:13:02;8.10;79.70
21676;DHT22;10999;51.332;9.458;2023-03-21T06:15:29;8.10;79.90
21676;DHT22;10999;51.332;9.458;2023-03-21T06:17:56;8.10;79.30
21676;DHT22;10999;51.332;9.458;2023-03-21T06:20:22;8.10;79.60
21676;DHT22;10999;51.332;9.458;2023-03-21T06:22:49;8.10;79.00
21676;DHT22;10999;51.332;9.458;2023-03-21T06:25:16;8.10;78.30
21676;DHT22;10999;51.332;9.458;2023-03-21T06:27:43;8.20;78.50
21676;DHT22;10999;51.332;9.458;2023-03-21T06:30:10;8.20;77.50
21676;DHT22;10999;51.332;9.458;2023-03-21T06:32:37;8.20;77.70
21676;DHT22;10999;51.332;9.458;2023-03-21T06:35:04;8.20;78.20
21676;DHT22;10999;51.332;9.458;2023-03-21T06:37:31;8.30;78.40
21676;DHT22;10999;51.332;9.458;2023-03-21T06:39:57;8.30;77.30
21676;DHT22;10999;51.332;9.458;2023-03-21T06:42:24;8.30;77.40
21676;DHT22;10999;51.332;9.458;2023-03-21T06:44:51;8.30;77.30
21676;DHT22;10999;51.332;9.458;2023-03-21T06:47:17;8.30;77.00
21676;DHT22;10999;51.332;9.458;2023-03-21T06:49:44;8.30;76.90
21676;DHT22;10999;51.332;9.458;2023-03-21T06:52:11;8.30;76.50
21676;DHT22;10999;51.332;9.458;2023-03-21T06:54:38;8.30;76.50
21676;DHT22;10999;51.332;9.458;2023-03-21T06:57:04;8.30;77.10
21676;DHT22;10999;51.332;9.458;2023-03-21T06:59:31;8.40;77.00
21676;DHT22;10999;51.332;9.458;2023-03-21T07:01:58;8.30;77.40
21676;DHT22;10999;51.332;9.458;2023-03-21T07:04:24;8.30;75.90
21676;DHT22;10999;51.332;9.458;2023-03-21T07:06:52;8.40;76.20
21676;DHT22;10999;51.332;9.458;2023-03-21T07:09:19;8.40;75.70
21676;DHT22;10999;51.332;9.458;2023-03-21T07:11:50;8.40;76.10
21676;DHT22;10999;51.332;9.458;2023-03-21T07:14:19;8.40;76.90
21676;DHT22;10999;51.332;9.458;2023-03-21T07:16:45;8.50;75.70
21676;DHT22;10999;51.332;9.458;2023-03-21T07:19:12;8.50;76.30
21676;DHT22;10999;51.332;9.458;2023-03-21T07:21:39;8.60;75.30
21676;DHT22;10999;51.332;9.458;2023-03-21T07:24:06;8.60;74.40
21676;DHT22;10999;51.332;9.458;2023-03-21T07:26:33;8.60;75.10
21676;DHT22;10999;51.332;9.458;2023-03-21T07:29:00;8.70;75.00
21676;DHT22;10999;51.332;9.458;2023-03-21T07:31:26;8.70;75.10
21676;DHT22;10999;51.332;9.458;2023-03-21T07:33:53;8.80;73.60
21676;DHT22;10999;51.332;9.458;2023-03-21T07:36:20;8.80;73.30
21676;DHT22;10999;51.332;9.458;2023-03-21T07:38:47;8.80;73.20
21676;DHT22;10999;51.332;9.458;2023-03-21T07:41:14;8.90;74.00
21676;DHT22;10999;51.332;9.458;2023-03-21T07:43:42;8.90;73.40
21676;DHT22;10999;51.332;9.458;2023-03-21T07:46:08;9.00;72.80
21676;DHT22;10999;51.332;9.458;2023-03-21T07:48:35;9.00;71.90
21676;DHT22;10999;51.332;9.458;2023-03-21T07:51:03;9.10;72.50
21676;DHT22;10999;51.332;9.458;2023-03-21T07:53:31;9.20;73.50
21676;DHT22;10999;51.332;9.458;2023-03-21T07:55:58;9.30;71.10
21676;DHT22;10999;51.332;9.458;2023-03-21T07:58:25;9.30;71.60
21676;DHT22;10999;51.332;9.458;2023-03-21T08:00:53;9.30;71.20
21676;DHT22;10999;51.332;9.458;2023-03-21T08:03:23;9.30;70.70
21676;DHT22;10999;51.332;9.458;2023-03-21T08:05:51;9.40;71.10
21676;DHT22;10999;51.332;9.458;2023-03-21T08:08:18;9.40;70.10
21676;DHT22;10999;51.332;9.458;2023-03-21T08:10:45;9.40;71.40
21676;DHT22;10999;51.332;9.458;2023-03-21T08:13:12;9.40;70.90
21676;DHT22;10999;51.332;9.458;2023-03-21T08:15:39;9.50;71.20
21676;DHT22;10999;51.332;9.458;2023-03-21T08:18:08;9.50;70.20
21676;DHT22;10999;51.332;9.458;2023-03-21T08:20:35;9.60;69.70
21676;DHT22;10999;51.332;9.458;2023-03-21T08:23:02;9.60;68.60
21676;DHT22;10999;51.332;9.458;2023-03-21T08:25:29;9.70;69.60
21676;DHT22;10999;51.332;9.458;2023-03-21T08:27:56;9.60;68.00
21676;DHT22;10999;51.332;9.458;2023-03-21T08:30:23;9.60;67.90
21676;DHT22;10999;51.332;9.458;2023-03-21T08:32:55;9.70;68.10
21676;DHT22;10999;51.332;9.458;2023-03-21T08:35:27;9.80;68.20
21676;DHT22;10999;51.332;9.458;2023-03-21T08:37:54;9.90;66.30
21676;DHT22;10999;51.332;9.458;2023-03-21T08:40:20;10.00;66.80
21676;DHT22;10999;51.332;9.458;2023-03-21T08:42:47;10.00;66.30
21676;DHT22;10999;51.332;9.458;2023-03-21T08:45:15;10.20;64.70
21676;DHT22;10999;51.332;9.458;2023-03-21T08:47:42;10.20;65.60
21676;DHT22;10999;51.332;9.458;2023-03-21T08:50:11;10.30;64.60
21676;DHT22;10999;51.332;9.458;2023-03-21T08:52:39;10.40;66.10
21676;DHT22;10999;51.332;9.458;2023-03-21T08:55:07;10.50;65.00
21676;DHT22;10999;51.332;9.458;2023-03-21T08:57:34;10.50;63.80
21676;DHT22;10999;51.332;9.458;2023-03-21T09:00:06;10.40;62.50
21676;DHT22;10999;51.332;9.458;2023-03-21T09:02:40;10.40;63.50
21676;DHT22;10999;51.332;9.458;2023-03-21T09:05:08;10.30;63.50
21676;DHT22;10999;51.332;9.458;2023-03-21T09:07:35;10.30;63.90
21676;DHT22;10999;51.332;9.458;2023-03-21T09:10:05;10.30;64.80
21676;DHT22;10999;51.332;9.458;2023-03-21T09:12:50;10.40;66.30
21676;DHT22;10999;51.332;9.458;2023-03-21T09:15:17;10.40;63.40
21676;DHT22;10999;51.332;9.458;2023-03-21T09:17:47;10.50;64.60
21676;DHT22;10999;51.332;9.458;2023-03-21T09:20:19;10.60;63.20
21676;DHT22;10999;51.332;9.458;2023-03-21T09:22:52;10.60;63.00
21676;DHT22;10999;51.332;9.458;2023-03-21T09:25:19;10.80;64.80
21676;DHT22;10999;51.332;9.458;2023-03-21T09:27:49;10.90;62.30
21676;DHT22;10999;51.332;9.458;2023-03-21T09:30:18;11.00;61.20
21676;DHT22;10999;51.332;9.458;2023-03-21T09:32:47;11.20;61.00
21676;DHT22;10999;51.332;9.458;2023-03-21T09:35:19;11.30;60.20
21676;DHT22;10999;51.332;9.458;2023-03-21T09:37:47;11.40;60.40
21676;DHT22;10999;51.332;9.458;2023-03-21T09:49:05;11.60;57.40
21676;DHT22;10999;51.332;9.458;2023-03-21T09:51:39;11.60;57.40
21676;DHT22;10999;51.332;9.458;2023-03-21T09:54:22;11.60;58.40
21676;DHT22;10999;51.332;9.458;2023-03-21T09:56:54;11.50;58.00
21676;DHT22;10999;51.332;9.458;2023-03-21T09:59:33;11.50;60.00
21676;DHT22;10999;51.332;9.458;2023-03-21T10:05:02;11.50;59.60
21676;DHT22;10999;51.332;9.458;2023-03-21T10:07:40;11.50;59.00
21676;DHT22;10999;51.332;9.458;2023-03-21T10:10:16;11.50;59.10
21676;DHT22;10999;51.332;9.458;2023-03-21T10:12:45;11.50;60.00
21676;DHT22;10999;51.332;9.458;2023-03-21T10:15:21;11.60;59.80
21676;DHT22;10999;51.332;9.458;2023-03-21T10:17:54;11.70;60.50
21676;DHT22;10999;51.332;9.458;2023-03-21T10:20:28;11.70;59.90
21676;DHT22;10999;51.332;9.458;2023-03-21T10:22:58;11.80;59.60
21676;DHT22;10999;51.332;9.458;2023-03-21T10:25:39;11.90;59.10
21676;DHT22;10999;51.332;9.458;2023-03-21T10:28:20;12.00;60.10
21676;DHT22;10999;51.332;9.458;2023-03-21T10:30:53;12.00;57.60
21676;DHT22;10999;51.332;9.458;2023-03-21T10:33:28;12.00;59.30
21676;DHT22;10999;51.332;9.458;2023-03-21T10:35:59;12.20;61.40
21676;DHT22;10999;51.332;9.458;2023-03-21T10:38:43;12.40;59.20
21676;DHT22;10999;51.332;9.458;2023-03-21T10:41:26;12.30;55.60
21676;DHT22;10999;51.332;9.458;2023-03-21T10:44:10;12.40;57.00
21676;DHT22;10999;51.332;9.458;2023-03-21T10:46:37;12.20;57.40
21676;DHT22;10999;51.332;9.458;2023-03-21T10:49:06;12.30;58.30
21676;DHT22;10999;51.332;9.458;2023-03-21T10:51:35;12.30;58.10
21676;DHT22;10999;51.332;9.458;2023-03-21T10:54:15;12.20;58.50
21676;DHT22;10999;51.332;9.458;2023-03-21T10:56:57;12.30;58.80
21676;DHT22;10999;51.332;9.458;2023-03-21T10:59:26;12.30;59.70
21676;DHT22;10999;51.332;9.458;2023-03-21T11:01:55;12.20;58.80
21676;DHT22;10999;51.332;9.458;2023-03-21T11:04:26;12.10;59.30
21676;DHT22;10999;51.332;9.458;2023-03-21T11:06:56;12.10;59.50
21676;DHT22;10999;51.332;9.458;2023-03-21T11:09:41;12.10;60.50
21676;DHT22;10999;51.332;9.458;2023-03-21T11:12:11;12.20;59.60
21676;DHT22;10999;51.332;9.458;2023-03-21T11:14:43;12.20;60.90
21676;DHT22;10999;51.332;9.458;2023-03-21T11:22:14;12.30;61.80
21676;DHT22;10999;51.332;9.458;2023-03-21T11:24:49;12.40;60.10
21676;DHT22;10999;51.332;9.458;2023-03-21T11:27:16;12.40;58.90
21676;DHT22;10999;51.332;9.458;2023-03-21T11:29:48;12.30;61.60
21676;DHT22;10999;51.332;9.458;2023-03-21T11:32:33;12.40;61.70
21676;DHT22;10999;51.332;9.458;2023-03-21T11:42:51;12.10;63.40
21676;DHT22;10999;51.332;9.458;2023-03-21T11:45:29;12.00;65.00
21676;DHT22;10999;51.332;9.458;2023-03-21T11:47:58;11.90;66.10
21676;DHT22;10999;51.332;9.458;2023-03-21T11:50:39;11.70;68.10
21676;DHT22;10999;51.332;9.458;2023-03-21T11:53:30;11.70;70.60
21676;DHT22;10999;51.332;9.458;2023-03-21T12:06:52;11.50;77.80
21676;DHT22;10999;51.332;9.458;2023-03-21T12:13:33;11.50;77.40
21676;DHT22;10999;51.332;9.458;2023-03-21T12:18:59;11.40;78.60
21676;DHT22;10999;51.332;9.458;2023-03-21T12:21:55;11.40;80.40
21676;DHT22;10999;51.332;9.458;2023-03-21T12:24:31;11.40;80.00
21676;DHT22;10999;51.332;9.458;2023-03-21T12:35:19;11.20;82.00
21676;DHT22;10999;51.332;9.458;2023-03-21T12:38:13;11.10;84.10
21676;DHT22;10999;51.332;9.458;2023-03-21T12:46:18;11.00;86.20
21676;DHT22;10999;51.332;9.458;2023-03-21T12:48:50;10.90;85.00
21676;DHT22;10999;51.332;9.458;2023-03-21T12:51:21;11.00;87.10
21676;DHT22;10999;51.332;9.458;2023-03-21T12:53:56;11.00;86.70
21676;DHT22;10999;51.332;9.458;2023-03-21T12:59:17;11.10;87.50
21676;DHT22;10999;51.332;9.458;2023-03-21T13:01:47;11.10;87.10
21676;DHT22;10999;51.332;9.458;2023-03-21T13:04:29;11.00;86.50
21676;DHT22;10999;51.332;9.458;2023-03-21T13:06:59;11.00;88.20
21676;DHT22;10999;51.332;9.458;2023-03-21T13:09:40;11.00;88.50
21676;DHT22;10999;51.332;9.458;2023-03-21T13:12:37;11.00;88.80
21676;DHT22;10999;51.332;9.458;2023-03-21T13:18:12;10.90;88.50
21676;DHT22;10999;51.332;9.458;2023-03-21T13:20:45;10.80;89.80
21676;DHT22;10999;51.332;9.458;2023-03-21T13:23:13;10.80;88.30
21676;DHT22;10999;51.332;9.458;2023-03-21T13:25:47;10.70;90.50
21676;DHT22;10999;51.332;9.458;2023-03-21T13:28:27;10.70;92.00
21676;DHT22;10999;51.332;9.458;2023-03-21T13:31:14;10.60;91.60
21676;DHT22;10999;51.332;9.458;2023-03-21T13:33:45;10.50;92.40
21676;DHT22;10999;51.332;9.458;2023-03-21T13:36:14;10.50;93.30
21676;DHT22;10999;51.332;9.458;2023-03-21T13:38:41;10.50;93.60
21676;DHT22;10999;51.332;9.458;2023-03-21T13:41:21;10.40;94.40
21676;DHT22;10999;51.332;9.458;2023-03-21T13:43:52;10.40;94.90
21676;DHT22;10999;51.332;9.458;2023-03-21T13:54:02;10.40;94.10
21676;DHT22;10999;51.332;9.458;2023-03-21T13:56:48;10.40;94.30
21676;DHT22;10999;51.332;9.458;2023-03-21T13:59:43;10.30;94.20
21676;DHT22;10999;51.332;9.458;2023-03-21T14:02:32;10.30;95.30
21676;DHT22;10999;51.332;9.458;2023-03-21T14:05:16;10.30;95.40
21676;DHT22;10999;51.332;9.458;2023-03-21T14:07:47;10.20;95.50
21676;DHT22;10999;51.332;9.458;2023-03-21T14:10:23;10.30;95.90
21676;DHT22;10999;51.332;9.458;2023-03-21T14:12:52;10.20;95.50
21676;DHT22;10999;51.332;9.458;2023-03-21T14:17:57;10.20;96.20
21676;DHT22;10999;51.332;9.458;2023-03-21T14:20:27;10.20;96.70
21676;DHT22;10999;51.332;9.458;2023-03-21T14:22:54;10.10;97.10
21676;DHT22;10999;51.332;9.458;2023-03-21T14:25:24;10.10;97.00
21676;DHT22;10999;51.332;9.458;2023-03-21T14:27:59;10.00;97.10
21676;DHT22;10999;51.332;9.458;2023-03-21T14:33:01;10.10;98.40
21676;DHT22;10999;51.332;9.458;2023-03-21T14:35:30;10.10;98.90
21676;DHT22;10999;51.332;9.458;2023-03-21T14:38:04;10.00;99.20
21676;DHT22;10999;51.332;9.458;2023-03-21T14:40:31;10.10;99.30
21676;DHT22;10999;51.332;9.458;2023-03-21T14:43:04;10.00;99.50
21676;DHT22;10999;51.332;9.458;2023-03-21T14:45:33;10.00;99.70
21676;DHT22;10999;51.332;9.458;2023-03-21T14:48:09;10.00;99.90
21676;DHT22;10999;51.332;9.458;2023-03-21T14:50:41;10.00;99.90
21676;DHT22;10999;51.332;9.458;2023-03-21T14:53:14;10.00;99.90
21676;DHT22;10999;51.332;9.458;2023-03-21T14:58:29;10.00;99.90
21676;DHT22;10999;51.332;9.458;2023-03-21T15:01:01;10.00;99.90
21676;DHT22;10999;51.332;9.458;2023-03-21T15:03:29;10.00;99.90
21676;DHT22;10999;51.332;9.458;2023-03-21T15:05:57;10.00;99.90
21676;DHT22;10999;51.332;9.458;2023-03-21T15:08:26;10.00;99.90
21676;DHT22;10999;51.332;9.458;2023-03-21T15:11:10;10.00;99.90
21676;DHT22;10999;51.332;9.458;2023-03-21T15:13:52;10.00;99.90
21676;DHT22;10999;51.332;9.458;2023-03-21T15:16:21;10.00;99.90
21676;DHT22;10999;51.332;9.458;2023-03-21T15:18:48;10.00;99.90
21676;DHT22;10999;51.332;9.458;2023-03-21T15:21:22;10.00;99.90
21676;DHT22;10999;51.332;9.458;2023-03-21T15:23:58;10.00;99.90
21676;DHT22;10999;51.332;9.458;2023-03-21T15:26:29;10.00;99.90
21676;DHT22;10999;51.332;9.458;2023-03-21T15:28:58;9.90;99.90
21676;DHT22;10999;51.332;9.458;2023-03-21T15:31:32;9.90;99.90
21676;DHT22;10999;51.332;9.458;2023-03-21T15:34:00;9.90;99.90
21676;DHT22;10999;51.332;9.458;2023-03-21T15:36:34;9.80;99.90
21676;DHT22;10999;51.332;9.458;2023-03-21T15:39:06;9.90;99.90
21676;DHT22;10999;51.332;9.458;2023-03-21T15:41:34;9.90;99.90
21676;DHT22;10999;51.332;9.458;2023-03-21T15:46:45;9.80;99.90
21676;DHT22;10999;51.332;9.458;2023-03-21T15:51:59;9.70;99.90
21676;DHT22;10999;51.332;9.458;2023-03-21T15:54:33;9.70;99.90
21676;DHT22;10999;51.332;9.458;2023-03-21T15:57:03;9.70;99.90
21676;DHT22;10999;51.332;9.458;2023-03-21T15:59:39;9.60;99.90
21676;DHT22;10999;51.332;9.458;2023-03-21T16:02:16;9.60;99.90
21676;DHT22;10999;51.332;9.458;2023-03-21T16:04:58;9.60;99.90
21676;DHT22;10999;51.332;9.458;2023-03-21T16:07:26;9.60;99.90
21676;DHT22;10999;51.332;9.458;2023-03-21T16:09:58;9.60;99.90
21676;DHT22;10999;51.332;9.458;2023-03-21T16:12:25;9.60;99.90
21676;DHT22;10999;51.332;9.458;2023-03-21T16:14:53;9.50;99.90
21676;DHT22;10999;51.332;9.458;2023-03-21T16:17:32;9.50;99.90
21676;DHT22;10999;51.332;9.458;2023-03-21T16:19:59;9.50;99.90
21676;DHT22;10999;51.332;9.458;2023-03-21T16:22:26;9.50;99.90
21676;DHT22;10999;51.332;9.458;2023-03-21T16:24:54;9.50;99.90
21676;DHT22;10999;51.332;9.458;2023-03-21T16:27:20;9.50;99.90
21676;DHT22;10999;51.332;9.458;2023-03-21T16:29:47;9.40;99.90
21676;DHT22;10999;51.332;9.458;2023-03-21T16:32:15;9.40;99.90
21676;DHT22;10999;51.332;9.458;2023-03-21T16:34:43;9.40;99.90
21676;DHT22;10999;51.332;9.458;2023-03-21T16:37:12;9.40;99.90
21676;DHT22;10999;51.332;9.458;2023-03-21T16:39:41;9.30;99.90
21676;DHT22;10999;51.332;9.458;2023-03-21T16:42:10;9.30;99.90
21676;DHT22;10999;51.332;9.458;2023-03-21T16:44:37;9.30;99.90
21676;DHT22;10999;51.332;9.458;2023-03-21T16:47:20;9.30;99.90
21676;DHT22;10999;51.332;9.458;2023-03-21T16:49:49;9.30;99.90
21676;DHT22;10999;51.332;9.458;2023-03-21T16:52:16;9.20;99.90
21676;DHT22;10999;51.332;9.458;2023-03-21T16:54:43;9.20;99.90
21676;DHT22;10999;51.332;9.458;2023-03-21T16:57:23;9.20;99.90
21676;DHT22;10999;51.332;9.458;2023-03-21T16:59:54;9.20;99.90
21676;DHT22;10999;51.332;9.458;2023-03-21T17:02:22;9.10;99.90
21676;DHT22;10999;51.332;9.458;2023-03-21T17:04:50;9.10;99.90
21676;DHT22;10999;51.332;9.458;2023-03-21T17:07:17;9.10;99.90
21676;DHT22;10999;51.332;9.458;2023-03-21T17:09:44;9.10;99.90
21676;DHT22;10999;51.332;9.458;2023-03-21T17:12:12;9.00;99.90
21676;DHT22;10999;51.332;9.458;2023-03-21T17:14:41;9.00;99.90
21676;DHT22;10999;51.332;9.458;2023-03-21T17:17:13;9.00;99.90
21676;DHT22;10999;51.332;9.458;2023-03-21T17:19:40;9.00;99.90
21676;DHT22;10999;51.332;9.458;2023-03-21T17:22:07;9.00;99.90
21676;DHT22;10999;51.332;9.458;2023-03-21T17:24:34;9.00;99.90
21676;DHT22;10999;51.332;9.458;2023-03-21T17:27:03;9.00;99.90
21676;DHT22;10999;51.332;9.458;2023-03-21T17:29:29;9.00;99.90
21676;DHT22;10999;51.332;9.458;2023-03-21T17:31:56;9.00;99.90
21676;DHT22;10999;51.332;9.458;2023-03-21T17:34:23;9.00;99.90
21676;DHT22;10999;51.332;9.458;2023-03-21T17:36:50;9.00;99.90
21676;DHT22;10999;51.332;9.458;2023-03-21T17:39:22;8.90;99.90
21676;DHT22;10999;51.332;9.458;2023-03-21T17:41:50;8.90;99.90
21676;DHT22;10999;51.332;9.458;2023-03-21T17:44:18;8.90;99.90
21676;DHT22;10999;51.332;9.458;2023-03-21T17:46:45;8.90;99.90
21676;DHT22;10999;51.332;9.458;2023-03-21T17:49:15;8.90;99.90
21676;DHT22;10999;51.332;9.458;2023-03-21T17:51:42;8.90;99.60
21676;DHT22;10999;51.332;9.458;2023-03-21T17:54:08;8.80;98.90
21676;DHT22;10999;51.332;9.458;2023-03-21T17:56:35;8.90;99.20
21676;DHT22;10999;51.332;9.458;2023-03-21T17:59:10;8.80;99.30